sensor_id;sensor_type;location;lat;lon;timestamp;pressure;altitude;pressure_sealevel;temperature;humidity
13015;BME280;6573;57.696;11.950;2023-02-23T00:01:43;101333.53;;;6.53;100.00
13015;BME280;6573;57.696;11.950;2023-02-23T00:04:17;101346.78;;;6.63;100.00
13015;BME280;6573;57.696;11.950;2023-02-23T00:06:50;101324.69;;;6.48;100.00
13015;BME280;6573;57.696;11.950;2023-02-23T00:09:24;101341.63;;;6.66;100.00
13015;BME280;6573;57.696;11.950;2023-02-23T00:11:56;101352.94;;;6.65;100.00
13015;BME280;6573;57.696;11.950;2023-02-23T00:14:26;101349.34;;;6.60;100.00
13015;BME280;6573;57.696;11.950;2023-02-23T00:17:00;101345.81;;;6.58;100.00
13015;BME280;6573;57.696;11.950;2023-02-23T00:19:41;101338.75;;;6.53;100.00
13015;BME280;6573;57.696;11.950;2023-02-23T00:22:10;101337.91;;;6.55;100.00
13015;BME280;6573;57.696;11.950;2023-02-23T00:24:39;101335.31;;;6.55;100.00
13015;BME280;6573;57.696;11.950;2023-02-23T00:27:13;101333.69;;;6.60;100.00
13015;BME280;6573;57.696;11.950;2023-02-23T00:29:46;101329.59;;;6.74;100.00
13015;BME280;6573;57.696;11.950;2023-02-23T00:32:16;101324.34;;;6.72;100.00
13015;BME280;6573;57.696;11.950;2023-02-23T00:34:54;101283.97;;;6.58;100.00
13015;BME280;6573;57.696;11.950;2023-02-23T00:37:30;101223.13;;;6.23;100.00
13015;BME280;6573;57.696;11.950;2023-02-23T00:39:58;101327.09;;;6.80;100.00
13015;BME280;6573;57.696;11.950;2023-02-23T00:42:29;101299.06;;;6.73;100.00
13015;BME280;6573;57.696;11.950;2023-02-23T00:44:58;101290.16;;;6.62;100.00
13015;BME280;6573;57.696;11.950;2023-02-23T00:47:34;101314.81;;;6.76;100.00
13015;BME280;6573;57.696;11.950;2023-02-23T00:50:08;101299.13;;;6.76;100.00
13015;BME280;6573;57.696;11.950;2023-02-23T00:52:39;101313.19;;;6.81;100.00
13015;BME280;6573;57.696;11.950;2023-02-23T00:55:14;101293.91;;;6.76;100.00
13015;BME280;6573;57.696;11.950;2023-02-23T00:57:46;101295.31;;;6.59;100.00
13015;BME280;6573;57.696;11.950;2023-02-23T01:00:16;101295.47;;;6.68;100.00
13015;BME280;6573;57.696;11.950;2023-02-23T01:02:46;101246.06;;;6.36;100.00
13015;BME280;6573;57.696;11.950;2023-02-23T01:05:17;101286.66;;;6.63;100.00
13015;BME280;6573;57.696;11.950;2023-02-23T01:07:46;101285.03;;;6.68;100.00
13015;BME280;6573;57.696;11.950;2023-02-23T01:10:17;101180.56;;;5.87;100.00
13015;BME280;6573;57.696;11.950;2023-02-23T01:12:49;101242.22;;;6.19;100.00
13015;BME280;6573;57.696;11.950;2023-02-23T01:15:20;101245.88;;;6.27;100.00
13015;BME280;6573;57.696;11.950;2023-02-23T01:17:49;101284.78;;;6.56;100.00
13015;BME280;6573;57.696;11.950;2023-02-23T01:20:18;101187.88;;;6.03;100.00
13015;BME280;6573;57.696;11.950;2023-02-23T01:22:49;101262.06;;;6.51;100.00
13015;BME280;6573;57.696;11.950;2023-02-23T01:25:18;101276.28;;;6.66;100.00
13015;BME280;6573;57.696;11.950;2023-02-23T01:27:47;101195.03;;;6.13;100.00
13015;BME280;6573;57.696;11.950;2023-02-23T01:30:16;101262.38;;;6.67;100.00
13015;BME280;6573;57.696;11.950;2023-02-23T01:32:45;101223.63;;;6.47;100.00
13015;BME280;6573;57.696;11.950;2023-02-23T01:35:18;101258.13;;;6.72;100.00
13015;BME280;6573;57.696;11.950;2023-02-23T01:37:49;101250.28;;;6.72;100.00
13015;BME280;6573;57.696;11.950;2023-02-23T01:40:20;101249.41;;;6.73;100.00
13015;BME280;6573;57.696;11.950;2023-02-23T01:42:56;101197.31;;;6.38;100.00
13015;BME280;6573;57.696;11.950;2023-02-23T01:45:32;101233.22;;;6.48;100.00
13015;BME280;6573;57.696;11.950;2023-02-23T01:48:05;101230.38;;;6.36;100.00
13015;BME280;6573;57.696;11.950;2023-02-23T01:50:43;101221.88;;;6.46;100.00
13015;BME280;6573;57.696;11.950;2023-02-23T01:53:12;101224.56;;;6.51;100.00
13015;BME280;6573;57.696;11.950;2023-02-23T01:55:41;101208.75;;;6.43;100.00
13015;BME280;6573;57.696;11.950;2023-02-23T01:58:14;101212.19;;;6.41;100.00
13015;BME280;6573;57.696;11.950;2023-02-23T02:00:49;101181.53;;;6.32;100.00
13015;BME280;6573;57.696;11.950;2023-02-23T02:03:25;101206.69;;;6.27;100.00
13015;BME280;6573;57.696;11.950;2023-02-23T02:05:57;101202.38;;;6.29;100.00
13015;BME280;6573;57.696;11.950;2023-02-23T02:08:29;101165.34;;;6.08;100.00
13015;BME280;6573;57.696;11.950;2023-02-23T02:11:04;101190.97;;;6.26;100.00
13015;BME280;6573;57.696;11.950;2023-02-23T02:13:52;101191.72;;;6.20;100.00
13015;BME280;6573;57.696;11.950;2023-02-23T02:16:53;101190.06;;;6.25;100.00
13015;BME280;6573;57.696;11.950;2023-02-23T02:23:03;101162.00;;;6.15;100.00
13015;BME280;6573;57.696;11.950;2023-02-23T02:25:50;101162.00;;;6.15;100.00
13015;BME280;6573;57.696;11.950;2023-02-23T02:28:54;101155.09;;;6.17;100.00
13015;BME280;6573;57.696;11.950;2023-02-23T02:34:56;101151.50;;;6.12;100.00
13015;BME280;6573;57.696;11.950;2023-02-23T02:37:48;101138.22;;;6.02;100.00
13015;BME280;6573;57.696;11.950;2023-02-23T02:40:27;101113.00;;;6.02;100.00
13015;BME280;6573;57.696;11.950;2023-02-23T02:43:00;101107.84;;;6.05;100.00
13015;BME280;6573;57.696;11.950;2023-02-23T02:45:43;101118.34;;;6.08;100.00
13015;BME280;6573;57.696;11.950;2023-02-23T02:48:22;101107.88;;;6.07;100.00
13015;BME280;6573;57.696;11.950;2023-02-23T02:50:54;101094.56;;;5.95;100.00
13015;BME280;6573;57.696;11.950;2023-02-23T02:53:32;101135.88;;;6.15;100.00
13015;BME280;6573;57.696;11.950;2023-02-23T02:56:05;101127.34;;;6.22;100.00
13015;BME280;6573;57.696;11.950;2023-02-23T02:58:34;101124.00;;;6.29;100.00
13015;BME280;6573;57.696;11.950;2023-02-23T03:01:06;101122.50;;;6.43;100.00
13015;BME280;6573;57.696;11.950;2023-02-23T03:03:52;101113.63;;;6.35;100.00
13015;BME280;6573;57.696;11.950;2023-02-23T03:06:44;101081.91;;;6.14;100.00
13015;BME280;6573;57.696;11.950;2023-02-23T03:09:38;101121.81;;;6.52;100.00
13015;BME280;6573;57.696;11.950;2023-02-23T03:12:31;101035.28;;;5.91;100.00
13015;BME280;6573;57.696;11.950;2023-02-23T03:15:38;101115.34;;;6.33;100.00
13015;BME280;6573;57.696;11.950;2023-02-23T03:18:40;101102.06;;;6.23;100.00
13015;BME280;6573;57.696;11.950;2023-02-23T03:21:38;101057.19;;;5.97;100.00
13015;BME280;6573;57.696;11.950;2023-02-23T03:24:35;101057.50;;;6.12;100.00
13015;BME280;6573;57.696;11.950;2023-02-23T03:27:27;101093.38;;;6.22;100.00
13015;BME280;6573;57.696;11.950;2023-02-23T03:30:21;101090.13;;;6.34;100.00
13015;BME280;6573;57.696;11.950;2023-02-23T03:33:14;101057.72;;;6.26;100.00
13015;BME280;6573;57.696;11.950;2023-02-23T03:36:06;101070.72;;;6.23;100.00
13015;BME280;6573;57.696;11.950;2023-02-23T03:38:56;101062.28;;;6.36;100.00
13015;BME280;6573;57.696;11.950;2023-02-23T03:41:46;101079.81;;;6.43;100.00
13015;BME280;6573;57.696;11.950;2023-02-23T03:44:36;101082.19;;;6.29;100.00
13015;BME280;6573;57.696;11.950;2023-02-23T03:47:26;101048.56;;;6.01;100.00
13015;BME280;6573;57.696;11.950;2023-02-23T03:50:20;101072.53;;;6.25;100.00
13015;BME280;6573;57.696;11.950;2023-02-23T03:53:09;101052.31;;;6.15;100.00
13015;BME280;6573;57.696;11.950;2023-02-23T03:55:59;101064.53;;;6.16;100.00
13015;BME280;6573;57.696;11.950;2023-02-23T03:58:50;101063.16;;;6.36;100.00
13015;BME280;6573;57.696;11.950;2023-02-23T04:01:38;101041.03;;;6.18;100.00
13015;BME280;6573;57.696;11.950;2023-02-23T04:04:24;101062.94;;;6.24;100.00
13015;BME280;6573;57.696;11.950;2023-02-23T04:07:13;100987.06;;;5.73;100.00
13015;BME280;6573;57.696;11.950;2023-02-23T04:10:01;100984.47;;;5.73;100.00
13015;BME280;6573;57.696;11.950;2023-02-23T04:12:53;101040.09;;;6.13;100.00
13015;BME280;6573;57.696;11.950;2023-02-23T04:15:46;101026.19;;;6.15;100.00
13015;BME280;6573;57.696;11.950;2023-02-23T04:18:21;101021.69;;;6.07;100.00
13015;BME280;6573;57.696;11.950;2023-02-23T04:20:51;101031.47;;;6.18;100.00
13015;BME280;6573;57.696;11.950;2023-02-23T04:23:19;101023.75;;;6.24;100.00
13015;BME280;6573;57.696;11.950;2023-02-23T04:25:49;101002.75;;;6.18;100.00
13015;BME280;6573;57.696;11.950;2023-02-23T04:28:18;101019.50;;;6.29;100.00
13015;BME280;6573;57.696;11.950;2023-02-23T04:30:48;100992.34;;;6.20;100.00
13015;BME280;6573;57.696;11.950;2023-02-23T04:33:18;101014.22;;;6.26;100.00
13015;BME280;6573;57.696;11.950;2023-02-23T04:35:48;100963.56;;;6.18;100.00
13015;BME280;6573;57.696;11.950;2023-02-23T04:38:16;100949.50;;;6.10;100.00
13015;BME280;6573;57.696;11.950;2023-02-23T04:40:46;101012.72;;;6.40;100.00
13015;BME280;6573;57.696;11.950;2023-02-23T04:43:14;101009.13;;;6.35;100.00
13015;BME280;6573;57.696;11.950;2023-02-23T04:45:43;101008.34;;;6.39;100.00
13015;BME280;6573;57.696;11.950;2023-02-23T04:48:13;100988.50;;;6.50;100.00
13015;BME280;6573;57.696;11.950;2023-02-23T04:50:41;100929.53;;;6.14;100.00
13015;BME280;6573;57.696;11.950;2023-02-23T04:53:10;100965.59;;;6.34;100.00
13015;BME280;6573;57.696;11.950;2023-02-23T04:55:38;101008.50;;;6.50;100.00
13015;BME280;6573;57.696;11.950;2023-02-23T04:58:09;101003.31;;;6.51;100.00
13015;BME280;6573;57.696;11.950;2023-02-23T05:00:40;100968.13;;;6.30;100.00
13015;BME280;6573;57.696;11.950;2023-02-23T05:03:09;101001.56;;;6.50;100.00
13015;BME280;6573;57.696;11.950;2023-02-23T05:05:39;100994.41;;;6.40;100.00
13015;BME280;6573;57.696;11.950;2023-02-23T05:08:08;100978.59;;;6.31;100.00
13015;BME280;6573;57.696;11.950;2023-02-23T05:10:36;100990.22;;;6.48;100.00
13015;BME280;6573;57.696;11.950;2023-02-23T05:13:06;100982.34;;;6.47;100.00
13015;BME280;6573;57.696;11.950;2023-02-23T05:15:34;100977.97;;;6.44;100.00
13015;BME280;6573;57.696;11.950;2023-02-23T05:18:04;100962.16;;;6.38;100.00
13015;BME280;6573;57.696;11.950;2023-02-23T05:20:32;100983.44;;;6.60;100.00
13015;BME280;6573;57.696;11.950;2023-02-23T05:23:02;100969.22;;;6.44;100.00
13015;BME280;6573;57.696;11.950;2023-02-23T05:25:33;100968.59;;;6.57;100.00
13015;BME280;6573;57.696;11.950;2023-02-23T05:28:02;100971.25;;;6.62;100.00
13015;BME280;6573;57.696;11.950;2023-02-23T05:30:30;100887.03;;;6.22;100.00
13015;BME280;6573;57.696;11.950;2023-02-23T05:32:59;100945.91;;;6.58;100.00
13015;BME280;6573;57.696;11.950;2023-02-23T05:35:28;100925.69;;;6.44;100.00
13015;BME280;6573;57.696;11.950;2023-02-23T05:37:56;100920.28;;;6.32;100.00
13015;BME280;6573;57.696;11.950;2023-02-23T05:40:26;100980.06;;;6.67;100.00
13015;BME280;6573;57.696;11.950;2023-02-23T05:42:57;100930.88;;;6.43;100.00
13015;BME280;6573;57.696;11.950;2023-02-23T05:45:26;100967.66;;;6.53;100.00
13015;BME280;6573;57.696;11.950;2023-02-23T05:47:54;100971.31;;;6.65;100.00
13015;BME280;6573;57.696;11.950;2023-02-23T05:50:23;100971.56;;;6.83;100.00
13015;BME280;6573;57.696;11.950;2023-02-23T05:52:51;100962.81;;;6.81;100.00
13015;BME280;6573;57.696;11.950;2023-02-23T05:55:20;100904.63;;;6.35;100.00
13015;BME280;6573;57.696;11.950;2023-02-23T05:57:50;100944.94;;;6.49;100.00
13015;BME280;6573;57.696;11.950;2023-02-23T06:00:18;100943.09;;;6.42;100.00
13015;BME280;6573;57.696;11.950;2023-02-23T06:02:47;100960.88;;;6.68;100.00
13015;BME280;6573;57.696;11.950;2023-02-23T06:05:18;100943.31;;;6.58;100.00
13015;BME280;6573;57.696;11.950;2023-02-23T06:07:47;100911.56;;;6.33;100.00
13015;BME280;6573;57.696;11.950;2023-02-23T06:10:16;100887.09;;;6.27;100.00
13015;BME280;6573;57.696;11.950;2023-02-23T06:12:44;100945.19;;;6.65;100.00
13015;BME280;6573;57.696;11.950;2023-02-23T06:15:15;100941.84;;;6.75;100.00
13015;BME280;6573;57.696;11.950;2023-02-23T06:17:43;100936.50;;;6.67;100.00
13015;BME280;6573;57.696;11.950;2023-02-23T06:20:12;100896.25;;;6.55;100.00
13015;BME280;6573;57.696;11.950;2023-02-23T06:22:40;100919.16;;;6.74;100.00
13015;BME280;6573;57.696;11.950;2023-02-23T06:25:09;100921.00;;;6.81;100.00
13015;BME280;6573;57.696;11.950;2023-02-23T06:27:39;100895.53;;;6.66;100.00
13015;BME280;6573;57.696;11.950;2023-02-23T06:30:11;100924.72;;;6.98;100.00
13015;BME280;6573;57.696;11.950;2023-02-23T06:32:42;100919.53;;;7.01;100.00
13015;BME280;6573;57.696;11.950;2023-02-23T06:35:11;100925.00;;;7.19;100.00
13015;BME280;6573;57.696;11.950;2023-02-23T06:37:40;100921.56;;;7.23;100.00
13015;BME280;6573;57.696;11.950;2023-02-23T06:40:10;100924.97;;;7.16;100.00
13015;BME280;6573;57.696;11.950;2023-02-23T06:42:38;100910.00;;;7.04;100.00
13015;BME280;6573;57.696;11.950;2023-02-23T06:45:07;100917.91;;;7.09;100.00
13015;BME280;6573;57.696;11.950;2023-02-23T06:47:36;100902.00;;;6.94;100.00
13015;BME280;6573;57.696;11.950;2023-02-23T06:50:07;100923.81;;;6.94;100.00
13015;BME280;6573;57.696;11.950;2023-02-23T06:52:36;100917.75;;;7.00;100.00
13015;BME280;6573;57.696;11.950;2023-02-23T06:55:07;100930.88;;;7.03;100.00
13015;BME280;6573;57.696;11.950;2023-02-23T06:57:35;100858.16;;;6.72;100.00
13015;BME280;6573;57.696;11.950;2023-02-23T07:00:07;100870.34;;;6.73;100.00
13015;BME280;6573;57.696;11.950;2023-02-23T07:02:36;100924.03;;;7.11;100.00
13015;BME280;6573;57.696;11.950;2023-02-23T07:05:08;100893.28;;;6.95;100.00
13015;BME280;6573;57.696;11.950;2023-02-23T07:07:37;100923.34;;;7.27;100.00
13015;BME280;6573;57.696;11.950;2023-02-23T07:10:07;100913.91;;;7.38;100.00
13015;BME280;6573;57.696;11.950;2023-02-23T07:12:35;100923.44;;;7.33;100.00
13015;BME280;6573;57.696;11.950;2023-02-23T07:15:04;100923.47;;;7.36;100.00
13015;BME280;6573;57.696;11.950;2023-02-23T07:17:33;100920.97;;;7.47;100.00
13015;BME280;6573;57.696;11.950;2023-02-23T07:20:01;100917.50;;;7.48;100.00
13015;BME280;6573;57.696;11.950;2023-02-23T07:22:31;100913.00;;;7.36;100.00
13015;BME280;6573;57.696;11.950;2023-02-23T07:24:59;100915.63;;;7.38;100.00
13015;BME280;6573;57.696;11.950;2023-02-23T07:27:28;100914.75;;;7.37;100.00
13015;BME280;6573;57.696;11.950;2023-02-23T07:29:57;100930.50;;;7.40;100.00
13015;BME280;6573;57.696;11.950;2023-02-23T07:32:25;100918.28;;;7.39;100.00
13015;BME280;6573;57.696;11.950;2023-02-23T07:34:56;100918.25;;;7.36;100.00
13015;BME280;6573;57.696;11.950;2023-02-23T07:37:25;100923.56;;;7.45;100.00
13015;BME280;6573;57.696;11.950;2023-02-23T07:39:55;100916.72;;;7.56;100.00
13015;BME280;6573;57.696;11.950;2023-02-23T07:42:26;100928.94;;;7.57;100.00
13015;BME280;6573;57.696;11.950;2023-02-23T07:44:55;100929.06;;;7.66;100.00
13015;BME280;6573;57.696;11.950;2023-02-23T07:47:26;100918.50;;;7.60;100.00
13015;BME280;6573;57.696;11.950;2023-02-23T07:49:57;100903.53;;;7.47;100.00
13015;BME280;6573;57.696;11.950;2023-02-23T07:52:26;100918.38;;;7.48;100.00
13015;BME280;6573;57.696;11.950;2023-02-23T07:54:55;100915.75;;;7.50;100.00
13015;BME280;6573;57.696;11.950;2023-02-23T07:57:32;100915.81;;;7.54;100.00
13015;BME280;6573;57.696;11.950;2023-02-23T08:00:03;100908.00;;;7.57;100.00
13015;BME280;6573;57.696;11.950;2023-02-23T08:02:32;100911.59;;;7.67;100.00
13015;BME280;6573;57.696;11.950;2023-02-23T08:05:03;100913.41;;;7.72;100.00
13015;BME280;6573;57.696;11.950;2023-02-23T08:07:32;100913.13;;;7.48;100.00
13015;BME280;6573;57.696;11.950;2023-02-23T08:10:02;100898.25;;;7.43;100.00
13015;BME280;6573;57.696;11.950;2023-02-23T08:12:31;100869.44;;;7.41;100.00
13015;BME280;6573;57.696;11.950;2023-02-23T08:15:00;100891.47;;;7.64;100.00
13015;BME280;6573;57.696;11.950;2023-02-23T08:17:32;100895.78;;;7.56;100.00
13015;BME280;6573;57.696;11.950;2023-02-23T08:20:03;100888.78;;;7.55;100.00
13015;BME280;6573;57.696;11.950;2023-02-23T08:22:32;100887.78;;;7.44;100.00
13015;BME280;6573;57.696;11.950;2023-02-23T08:25:16;100887.00;;;7.54;100.00
13015;BME280;6573;57.696;11.950;2023-02-23T08:27:46;100797.28;;;6.85;100.00
13015;BME280;6573;57.696;11.950;2023-02-23T08:30:22;100824.75;;;7.22;100.00
13015;BME280;6573;57.696;11.950;2023-02-23T08:32:50;100885.28;;;7.53;100.00
13015;BME280;6573;57.696;11.950;2023-02-23T08:35:21;100865.94;;;7.39;100.00
13015;BME280;6573;57.696;11.950;2023-02-23T08:37:49;100881.78;;;7.51;100.00
13015;BME280;6573;57.696;11.950;2023-02-23T08:40:19;100881.91;;;7.63;100.00
13015;BME280;6573;57.696;11.950;2023-02-23T08:42:48;100878.34;;;7.58;100.00
13015;BME280;6573;57.696;11.950;2023-02-23T08:45:18;100876.63;;;7.60;100.00
13015;BME280;6573;57.696;11.950;2023-02-23T08:47:46;100873.16;;;7.63;100.00
13015;BME280;6573;57.696;11.950;2023-02-23T08:50:15;100862.75;;;7.70;100.00
13015;BME280;6573;57.696;11.950;2023-02-23T08:52:46;100872.44;;;7.79;100.00
13015;BME280;6573;57.696;11.950;2023-02-23T08:55:15;100872.34;;;7.68;100.00
13015;BME280;6573;57.696;11.950;2023-02-23T08:57:45;100863.75;;;7.83;100.00
13015;BME280;6573;57.696;11.950;2023-02-23T09:00:15;100854.06;;;7.71;100.00
13015;BME280;6573;57.696;11.950;2023-02-23T09:02:48;100862.91;;;7.86;100.00
13015;BME280;6573;57.696;11.950;2023-02-23T09:05:18;100864.78;;;7.99;100.00
13015;BME280;6573;57.696;11.950;2023-02-23T09:07:47;100867.31;;;7.94;100.00
13015;BME280;6573;57.696;11.950;2023-02-23T09:10:19;100831.38;;;7.75;100.00
13015;BME280;6573;57.696;11.950;2023-02-23T09:13:03;100841.06;;;7.83;100.00
13015;BME280;6573;57.696;11.950;2023-02-23T09:15:31;100843.06;;;8.13;100.00
13015;BME280;6573;57.696;11.950;2023-02-23T09:18:00;100857.91;;;8.19;100.00
13015;BME280;6573;57.696;11.950;2023-02-23T09:20:29;100842.13;;;8.10;100.00
13015;BME280;6573;57.696;11.950;2023-02-23T09:23:00;100852.56;;;8.01;100.00
13015;BME280;6573;57.696;11.950;2023-02-23T09:25:28;100832.47;;;8.00;100.00
13015;BME280;6573;57.696;11.950;2023-02-23T09:27:58;100836.91;;;8.08;100.00
13015;BME280;6573;57.696;11.950;2023-02-23T09:30:31;100833.50;;;8.23;100.00
13015;BME280;6573;57.696;11.950;2023-02-23T09:33:04;100845.78;;;8.27;100.00
13015;BME280;6573;57.696;11.950;2023-02-23T09:35:33;100829.97;;;8.18;100.00
13015;BME280;6573;57.696;11.950;2023-02-23T09:38:05;100850.19;;;8.32;100.00
13015;BME280;6573;57.696;11.950;2023-02-23T09:40:42;100818.63;;;8.19;100.00
13015;BME280;6573;57.696;11.950;2023-02-23T09:43:14;100838.66;;;8.11;100.00
13015;BME280;6573;57.696;11.950;2023-02-23T09:45:52;100847.44;;;8.19;100.00
13015;BME280;6573;57.696;11.950;2023-02-23T09:48:33;100847.47;;;8.20;100.00
13015;BME280;6573;57.696;11.950;2023-02-23T09:51:05;100829.91;;;8.09;100.00
13015;BME280;6573;57.696;11.950;2023-02-23T09:53:42;100842.34;;;8.31;100.00
13015;BME280;6573;57.696;11.950;2023-02-23T09:56:26;100801.09;;;8.10;100.00
13015;BME280;6573;57.696;11.950;2023-02-23T09:59:03;100824.91;;;8.39;100.00
13015;BME280;6573;57.696;11.950;2023-02-23T10:02:01;100845.00;;;8.41;100.00
13015;BME280;6573;57.696;11.950;2023-02-23T10:04:38;100851.19;;;8.50;100.00
13015;BME280;6573;57.696;11.950;2023-02-23T10:07:14;100823.16;;;8.38;100.00
13015;BME280;6573;57.696;11.950;2023-02-23T10:10:09;100831.09;;;8.50;100.00
13015;BME280;6573;57.696;11.950;2023-02-23T10:12:55;100807.34;;;8.26;100.00
13015;BME280;6573;57.696;11.950;2023-02-23T10:15:37;100819.59;;;8.27;100.00
13015;BME280;6573;57.696;11.950;2023-02-23T10:18:19;100765.22;;;8.02;100.00
13015;BME280;6573;57.696;11.950;2023-02-23T10:20:59;100820.53;;;8.39;100.00
13015;BME280;6573;57.696;11.950;2023-02-23T10:23:37;100760.13;;;8.23;100.00
13015;BME280;6573;57.696;11.950;2023-02-23T10:26:16;100790.09;;;8.64;100.00
13015;BME280;6573;57.696;11.950;2023-02-23T10:28:47;100793.50;;;8.51;100.00
13015;BME280;6573;57.696;11.950;2023-02-23T10:31:26;100789.16;;;8.52;100.00
13015;BME280;6573;57.696;11.950;2023-02-23T10:34:01;100793.50;;;8.51;100.00
13015;BME280;6573;57.696;11.950;2023-02-23T10:36:36;100745.28;;;8.25;100.00
13015;BME280;6573;57.696;11.950;2023-02-23T10:39:08;100794.47;;;8.61;100.00
13015;BME280;6573;57.696;11.950;2023-02-23T10:41:37;100788.28;;;8.53;100.00
13015;BME280;6573;57.696;11.950;2023-02-23T10:44:16;100767.31;;;8.48;100.00
13015;BME280;6573;57.696;11.950;2023-02-23T10:46:50;100774.31;;;8.52;100.00
13015;BME280;6573;57.696;11.950;2023-02-23T10:49:27;100718.16;;;8.17;100.00
13015;BME280;6573;57.696;11.950;2023-02-23T10:51:58;100792.75;;;8.75;100.00
13015;BME280;6573;57.696;11.950;2023-02-23T10:54:45;100800.59;;;8.73;100.00
13015;BME280;6573;57.696;11.950;2023-02-23T10:57:22;100799.75;;;8.73;100.00
13015;BME280;6573;57.696;11.950;2023-02-23T11:00:04;100805.81;;;8.64;100.00
13015;BME280;6573;57.696;11.950;2023-02-23T11:02:37;100777.81;;;8.54;100.00
13015;BME280;6573;57.696;11.950;2023-02-23T11:05:28;100795.34;;;8.67;100.00
13015;BME280;6573;57.696;11.950;2023-02-23T11:08:09;100791.88;;;8.68;100.00
13015;BME280;6573;57.696;11.950;2023-02-23T11:10:38;100784.81;;;8.61;100.00
13015;BME280;6573;57.696;11.950;2023-02-23T11:13:21;100776.13;;;8.65;100.00
13015;BME280;6573;57.696;11.950;2023-02-23T11:16:04;100795.31;;;8.64;100.00
13015;BME280;6573;57.696;11.950;2023-02-23T11:18:36;100791.88;;;8.68;100.00
13015;BME280;6573;57.696;11.950;2023-02-23T11:21:36;100791.84;;;8.65;100.00
13015;BME280;6573;57.696;11.950;2023-02-23T11:24:15;100778.81;;;8.80;100.00
13015;BME280;6573;57.696;11.950;2023-02-23T11:26:50;100773.56;;;8.85;100.00
13015;BME280;6573;57.696;11.950;2023-02-23T11:29:26;100753.41;;;8.66;100.00
13015;BME280;6573;57.696;11.950;2023-02-23T11:32:05;100770.03;;;8.78;100.00
13015;BME280;6573;57.696;11.950;2023-02-23T11:34:36;100763.94;;;8.79;100.00
13015;BME280;6573;57.696;11.950;2023-02-23T11:37:18;100762.16;;;8.75;100.00
13015;BME280;6573;57.696;11.950;2023-02-23T11:39:51;100765.69;;;8.82;100.00
13015;BME280;6573;57.696;11.950;2023-02-23T11:42:21;100756.91;;;8.78;100.00
13015;BME280;6573;57.696;11.950;2023-02-23T11:45:00;100770.97;;;8.92;100.00
13015;BME280;6573;57.696;11.950;2023-02-23T11:47:30;100776.22;;;8.92;100.00
13015;BME280;6573;57.696;11.950;2023-02-23T11:50:02;100772.69;;;8.84;100.00
13015;BME280;6573;57.696;11.950;2023-02-23T11:52:33;100775.31;;;8.86;100.00
13015;BME280;6573;57.696;11.950;2023-02-23T11:55:05;100758.63;;;8.64;100.00
13015;BME280;6573;57.696;11.950;2023-02-23T11:57:35;100764.78;;;8.78;100.00
13015;BME280;6573;57.696;11.950;2023-02-23T12:00:10;100760.44;;;8.80;100.00
13015;BME280;6573;57.696;11.950;2023-02-23T12:02:51;100746.47;;;8.87;100.00
13015;BME280;6573;57.696;11.950;2023-02-23T12:05:23;100750.00;;;9.01;100.00
13015;BME280;6573;57.696;11.950;2023-02-23T12:07:58;100751.72;;;8.90;100.00
13015;BME280;6573;57.696;11.950;2023-02-23T12:10:31;100751.72;;;8.87;100.00
13015;BME280;6573;57.696;11.950;2023-02-23T12:13:08;100723.72;;;8.83;100.00
13015;BME280;6573;57.696;11.950;2023-02-23T12:15:44;100743.00;;;9.06;100.00
13015;BME280;6573;57.696;11.950;2023-02-23T12:18:21;100736.88;;;8.97;100.00
13015;BME280;6573;57.696;11.950;2023-02-23T12:20:55;100744.75;;;9.10;100.00
13015;BME280;6573;57.696;11.950;2023-02-23T12:23:28;100744.75;;;9.04;100.00
13015;BME280;6573;57.696;11.950;2023-02-23T12:26:03;100729.88;;;8.99;100.00
13015;BME280;6573;57.696;11.950;2023-02-23T12:28:36;100736.91;;;9.03;100.00
13015;BME280;6573;57.696;11.950;2023-02-23T12:31:20;100746.50;;;8.99;100.00
13015;BME280;6573;57.696;11.950;2023-02-23T12:33:54;100738.66;;;9.02;100.00
13015;BME280;6573;57.696;11.950;2023-02-23T12:36:31;100744.75;;;8.98;100.00
13015;BME280;6573;57.696;11.950;2023-02-23T12:39:07;100732.50;;;8.94;100.00
13015;BME280;6573;57.696;11.950;2023-02-23T12:41:50;100739.50;;;8.95;100.00
13015;BME280;6573;57.696;11.950;2023-02-23T12:44:30;100741.25;;;8.96;100.00
13015;BME280;6573;57.696;11.950;2023-02-23T12:47:08;100730.72;;;8.93;100.00
13015;BME280;6573;57.696;11.950;2023-02-23T12:49:44;100739.50;;;8.95;100.00
13015;BME280;6573;57.696;11.950;2023-02-23T12:52:18;100722.88;;;8.99;100.00
13015;BME280;6573;57.696;11.950;2023-02-23T12:54:49;100739.50;;;8.95;100.00
13015;BME280;6573;57.696;11.950;2023-02-23T12:57:24;100734.22;;;8.89;100.00
13015;BME280;6573;57.696;11.950;2023-02-23T13:00:21;100731.63;;;8.95;100.00
13015;BME280;6573;57.696;11.950;2023-02-23T13:03:25;100722.00;;;9.03;100.00
13015;BME280;6573;57.696;11.950;2023-02-23T13:06:03;100722.03;;;9.09;100.00
13015;BME280;6573;57.696;11.950;2023-02-23T13:08:55;100728.19;;;9.18;100.00
13015;BME280;6573;57.696;11.950;2023-02-23T13:11:51;100727.28;;;9.09;100.00
13015;BME280;6573;57.696;11.950;2023-02-23T13:14:27;100722.88;;;9.04;100.00
13015;BME280;6573;57.696;11.950;2023-02-23T13:17:03;100715.03;;;9.15;100.00
13015;BME280;6573;57.696;11.950;2023-02-23T13:19:36;100688.78;;;9.02;100.00
13015;BME280;6573;57.696;11.950;2023-02-23T13:22:23;100718.56;;;9.20;100.00
13015;BME280;6573;57.696;11.950;2023-02-23T13:24:57;100712.41;;;9.16;100.00
13015;BME280;6573;57.696;11.950;2023-02-23T13:27:34;100700.16;;;9.04;100.00
13015;BME280;6573;57.696;11.950;2023-02-23T13:30:08;100702.75;;;8.98;100.00
13015;BME280;6573;57.696;11.950;2023-02-23T13:32:37;100692.28;;;8.95;100.00
13015;BME280;6573;57.696;11.950;2023-02-23T13:35:12;100680.03;;;9.06;100.00
13015;BME280;6573;57.696;11.950;2023-02-23T13:37:45;100694.06;;;9.30;100.00